createdAt,value
2022-12-08T00:00:23.003Z,64.66
2022-12-08T00:03:10.614Z,66.18
2022-12-08T00:06:02.816Z,61.25
2022-12-08T00:08:51.771Z,57.16
2022-12-08T00:11:22.515Z,57.12
2022-12-08T00:13:53.652Z,59.37
2022-12-08T00:16:24.695Z,61.05
2022-12-08T00:18:55.838Z,62.83
2022-12-08T00:21:27.178Z,60.83
2022-12-08T00:23:57.971Z,56.09
2022-12-08T00:26:28.702Z,57.43
2022-12-08T00:28:59.687Z,60.48
2022-12-08T00:31:30.461Z,62.68
2022-12-08T00:34:02.085Z,61.65
2022-12-08T00:36:33.211Z,57.93
2022-12-08T00:39:04.414Z,59.09
2022-12-08T00:41:53.108Z,61.12
2022-12-08T00:44:23.906Z,63.10
2022-12-08T00:46:55.003Z,60.97
2022-12-08T00:49:26.404Z,57.04
2022-12-08T00:51:57.578Z,58.39
2022-12-08T00:54:28.693Z,60.35
2022-12-08T00:57:00.075Z,62.61
2022-12-08T00:59:31.129Z,64.01
2022-12-08T01:02:01.942Z,58.66
2022-12-08T01:04:33.102Z,58.18
2022-12-08T01:07:04.129Z,59.74
2022-12-08T01:09:35.134Z,61.78
2022-12-08T01:12:06.483Z,62.65
2022-12-08T01:14:38.398Z,57.43
2022-12-08T01:17:09.366Z,57.06
2022-12-08T01:19:40.577Z,60.82
2022-12-08T01:22:11.398Z,63.00
2022-12-08T01:24:42.618Z,64.30
2022-12-08T01:27:13.752Z,62.39
2022-12-08T01:29:45.150Z,55.63
2022-12-08T01:32:15.782Z,55.65
2022-12-08T01:34:46.990Z,58.37
2022-12-08T01:37:17.967Z,61.57
2022-12-08T01:39:48.798Z,63.91
2022-12-08T01:42:22.409Z,62.38
2022-12-08T01:44:51.599Z,55.56
2022-12-08T01:47:22.758Z,56.82
2022-12-08T01:49:54.409Z,60.23
2022-12-08T01:52:27.035Z,63.14
2022-12-08T01:54:59.809Z,61.65
2022-12-08T01:57:32.210Z,58.54
2022-12-08T02:00:05.081Z,58.20
2022-12-08T02:02:41.158Z,60.92
2022-12-08T02:05:12.532Z,63.40
2022-12-08T02:07:44.623Z,61.11
2022-12-08T02:10:18.103Z,56.58
2022-12-08T02:12:47.184Z,57.82
2022-12-08T02:15:18.391Z,59.67
2022-12-08T02:17:56.805Z,62.35
2022-12-08T02:20:50.511Z,65.51
2022-12-08T02:23:25.188Z,62.88
2022-12-08T02:26:10.658Z,59.44
2022-12-08T02:28:48.016Z,55.61
2022-12-08T02:31:23.142Z,56.41
2022-12-08T02:34:05.453Z,57.98
2022-12-08T02:36:39.111Z,61.81
2022-12-08T02:39:08.207Z,65.01
2022-12-08T02:41:40.921Z,67.18
2022-12-08T02:44:14.382Z,58.24
2022-12-08T02:46:48.595Z,55.49
2022-12-08T02:49:19.685Z,56.86
2022-12-08T02:51:50.691Z,58.91
2022-12-08T02:54:21.451Z,60.47
2022-12-08T02:57:01.661Z,64.76
2022-12-08T02:59:39.769Z,64.03
2022-12-08T03:02:16.829Z,60.18
2022-12-08T03:04:51.623Z,55.98
2022-12-08T03:07:24.882Z,57.63
2022-12-08T03:09:57.802Z,60.13
2022-12-08T03:12:32.292Z,63.94
2022-12-08T03:15:05.425Z,64.78
2022-12-08T03:17:37.654Z,62.19
2022-12-08T03:20:10.582Z,56.88
2022-12-08T03:22:42.932Z,57.23
2022-12-08T03:25:15.877Z,58.54
2022-12-08T03:27:47.430Z,62.40
2022-12-08T03:30:18.380Z,63.90
2022-12-08T03:32:54.024Z,60.85
2022-12-08T03:35:26.603Z,58.90
2022-12-08T03:38:04.937Z,56.37
2022-12-08T03:40:35.791Z,58.08
2022-12-08T03:43:07.095Z,61.36
2022-12-08T03:45:37.979Z,64.10
2022-12-08T03:48:09.019Z,62.12
2022-12-08T03:50:39.607Z,58.83
2022-12-08T03:53:10.540Z,56.17
2022-12-08T03:55:41.073Z,58.91
2022-12-08T03:58:12.413Z,61.93
2022-12-08T04:00:43.100Z,65.27
2022-12-08T04:03:14.086Z,60.83
2022-12-08T04:05:44.978Z,56.76
2022-12-08T04:08:16.442Z,59.25
2022-12-08T04:10:47.213Z,59.86
2022-12-08T04:13:18.351Z,63.23
2022-12-08T04:15:49.453Z,67.51
2022-12-08T04:18:20.539Z,64.66
2022-12-08T04:20:51.375Z,59.35
2022-12-08T04:23:22.625Z,56.97
2022-12-08T04:25:54.169Z,58.41
2022-12-08T04:28:25.573Z,61.45
2022-12-08T04:30:56.310Z,63.94
2022-12-08T04:33:27.907Z,62.74
2022-12-08T04:35:58.667Z,60.68
2022-12-08T04:38:30.101Z,56.72
2022-12-08T04:41:00.932Z,55.64
2022-12-08T04:43:32.078Z,57.08
2022-12-08T04:46:02.760Z,58.42
2022-12-08T04:48:33.954Z,59.79
2022-12-08T04:51:05.810Z,60.90
2022-12-08T04:53:38.361Z,66.75
2022-12-08T04:56:14.710Z,62.66
2022-12-08T04:58:45.982Z,57.94
2022-12-08T05:01:16.693Z,59.73
2022-12-08T05:03:47.763Z,62.89
2022-12-08T05:06:18.380Z,63.50
2022-12-08T05:08:49.501Z,61.90
2022-12-08T05:11:20.256Z,59.52
2022-12-08T05:13:51.123Z,56.19
2022-12-08T05:16:21.805Z,56.40
2022-12-08T05:18:52.835Z,58.57
2022-12-08T05:21:23.676Z,60.02
2022-12-08T05:23:55.224Z,63.38
2022-12-08T05:26:26.213Z,63.59
2022-12-08T05:28:57.616Z,60.80
2022-12-08T05:31:28.868Z,57.68
2022-12-08T05:34:03.194Z,56.49
2022-12-08T05:36:34.115Z,59.23
2022-12-08T05:39:05.509Z,61.23
2022-12-08T05:41:36.092Z,64.69
2022-12-08T05:44:07.544Z,64.49
2022-12-08T05:46:38.339Z,60.02
2022-12-08T05:49:09.729Z,56.45
2022-12-08T05:51:40.361Z,56.74
2022-12-08T05:54:11.339Z,57.98
2022-12-08T05:56:42.000Z,60.25
2022-12-08T05:59:13.377Z,61.97
2022-12-08T06:01:44.222Z,66.24
2022-12-08T06:04:15.362Z,63.94
2022-12-08T06:06:46.048Z,57.41
2022-12-08T06:09:17.283Z,57.23
2022-12-08T06:11:48.044Z,60.60
2022-12-08T06:14:19.080Z,64.43
2022-12-08T06:16:49.961Z,64.48
2022-12-08T06:19:21.287Z,62.05
2022-12-08T06:21:51.951Z,56.72
2022-12-08T06:24:23.509Z,57.14
2022-12-08T06:26:54.218Z,58.42
2022-12-08T06:29:26.128Z,60.50
2022-12-08T06:31:57.125Z,60.80
2022-12-08T06:34:28.690Z,64.97
2022-12-08T06:36:59.351Z,66.47
2022-12-08T06:39:30.391Z,62.14
2022-12-08T06:42:20.894Z,57.41
2022-12-08T06:44:52.508Z,55.92
2022-12-08T06:47:26.345Z,57.97
2022-12-08T06:49:57.564Z,59.77
2022-12-08T06:52:28.227Z,59.78
2022-12-08T06:54:59.332Z,61.33
2022-12-08T06:57:30.112Z,66.29
2022-12-08T07:00:01.662Z,67.85
2022-12-08T07:02:33.624Z,63.85
2022-12-08T07:05:04.968Z,60.25
2022-12-08T07:07:36.013Z,56.59
2022-12-08T07:10:08.392Z,55.51
2022-12-08T07:12:39.527Z,57.00
2022-12-08T07:15:11.836Z,58.87
2022-12-08T07:17:42.532Z,59.77
2022-12-08T07:20:13.980Z,64.07
2022-12-08T07:22:49.119Z,65.67
2022-12-08T07:25:21.039Z,62.51
2022-12-08T07:27:53.000Z,58.41
2022-12-08T07:30:24.465Z,53.83
2022-12-08T07:32:55.325Z,54.76
2022-12-08T07:35:26.327Z,56.05
2022-12-08T07:37:58.093Z,57.70
2022-12-08T07:40:29.282Z,59.04
2022-12-08T07:43:00.082Z,60.57
2022-12-08T07:45:31.921Z,60.99
2022-12-08T07:48:02.759Z,64.61
2022-12-08T07:50:34.410Z,65.75
2022-12-08T07:53:05.967Z,61.85
2022-12-08T07:55:40.637Z,56.59
2022-12-08T07:58:11.982Z,54.63
2022-12-08T08:00:43.040Z,55.47
2022-12-08T08:03:13.806Z,57.44
2022-12-08T08:05:45.670Z,58.02
2022-12-08T08:08:16.369Z,58.99
2022-12-08T08:10:47.860Z,59.75
2022-12-08T08:13:18.552Z,60.73
2022-12-08T08:15:49.953Z,63.80
2022-12-08T08:18:20.682Z,65.01
2022-12-08T08:20:51.813Z,60.12
2022-12-08T08:23:22.543Z,55.06
2022-12-08T08:25:53.640Z,55.46
2022-12-08T08:28:24.528Z,56.38
2022-12-08T08:30:55.956Z,60.16
2022-12-08T08:33:27.882Z,62.20
2022-12-08T08:35:59.136Z,62.86
2022-12-08T08:38:29.856Z,60.47
2022-12-08T08:41:03.321Z,53.92
2022-12-08T08:43:38.076Z,53.02
2022-12-08T08:46:10.339Z,53.96
2022-12-08T08:48:41.145Z,55.13
2022-12-08T08:51:12.550Z,56.47
2022-12-08T08:53:43.432Z,56.61
2022-12-08T08:56:15.498Z,59.06
2022-12-08T08:58:46.499Z,59.48
2022-12-08T09:01:17.917Z,61.69
2022-12-08T09:03:49.031Z,64.00
2022-12-08T09:06:20.858Z,63.14
2022-12-08T09:08:51.835Z,55.78
2022-12-08T09:11:23.699Z,55.12
2022-12-08T09:13:54.825Z,56.73
2022-12-08T09:16:26.155Z,55.29
2022-12-08T09:18:56.924Z,57.34
2022-12-08T09:21:28.057Z,56.98
2022-12-08T09:23:59.775Z,57.26
2022-12-08T09:26:30.900Z,58.55
2022-12-08T09:29:01.806Z,60.82
2022-12-08T09:31:32.963Z,63.34
2022-12-08T09:34:03.870Z,63.82
2022-12-08T09:36:34.867Z,58.29
2022-12-08T09:39:05.432Z,54.97
2022-12-08T09:41:43.325Z,55.35
2022-12-08T09:44:36.144Z,56.24
2022-12-08T09:47:13.645Z,55.14
2022-12-08T09:49:46.150Z,57.61
2022-12-08T09:52:21.559Z,57.67
2022-12-08T09:54:52.194Z,58.80
2022-12-08T09:57:25.279Z,57.83
2022-12-08T09:59:59.215Z,58.69
2022-12-08T10:02:30.993Z,59.41
2022-12-08T10:05:01.676Z,61.77
2022-12-08T10:07:35.742Z,64.56
2022-12-08T10:10:08.977Z,61.94
2022-12-08T10:12:43.057Z,57.09
2022-12-08T10:15:24.197Z,54.86
2022-12-08T10:17:55.927Z,54.58
2022-12-08T10:20:28.020Z,56.65
2022-12-08T10:23:08.927Z,57.02
2022-12-08T10:25:40.871Z,59.03
2022-12-08T10:28:14.125Z,58.66
2022-12-08T10:30:44.957Z,58.64
2022-12-08T10:33:17.446Z,59.28
2022-12-08T10:35:49.300Z,60.42
2022-12-08T10:38:22.190Z,62.53
2022-12-08T10:40:54.189Z,65.14
2022-12-08T10:43:26.510Z,62.70
2022-12-08T10:46:08.708Z,56.57
2022-12-08T10:48:48.562Z,53.12
2022-12-08T10:51:28.116Z,53.78
2022-12-08T10:54:00.502Z,55.06
2022-12-08T10:56:31.940Z,56.70
2022-12-08T10:59:14.491Z,57.44
2022-12-08T11:01:47.732Z,57.55
2022-12-08T11:04:20.055Z,58.24
2022-12-08T11:06:51.210Z,60.13
2022-12-08T11:09:32.688Z,59.49
2022-12-08T11:12:08.236Z,59.94
2022-12-08T11:14:48.463Z,61.19
2022-12-08T11:17:24.832Z,65.26
2022-12-08T11:19:59.871Z,64.02
2022-12-08T11:22:32.536Z,59.84
2022-12-08T11:25:11.792Z,54.05
2022-12-08T11:27:44.683Z,53.02
2022-12-08T11:30:17.465Z,54.04
2022-12-08T11:32:49.281Z,54.51
2022-12-08T11:35:26.029Z,56.75
2022-12-08T11:38:13.517Z,57.05
2022-12-08T11:40:51.368Z,57.74
2022-12-08T11:43:24.055Z,60.07
2022-12-08T11:45:54.130Z,59.52
2022-12-08T11:48:28.328Z,60.18
2022-12-08T11:51:02.499Z,60.40
2022-12-08T11:53:37.083Z,60.78
2022-12-08T11:56:11.752Z,61.59
2022-12-08T11:58:43.413Z,61.65
2022-12-08T12:01:19.812Z,64.66
2022-12-08T12:03:55.224Z,66.57
2022-12-08T12:09:31.750Z,56.38
2022-12-08T12:12:17.014Z,52.49
2022-12-08T12:15:01.020Z,52.83
2022-12-08T12:17:38.213Z,54.43
2022-12-08T12:20:13.427Z,54.81
2022-12-08T12:22:46.493Z,55.64
2022-12-08T12:25:22.438Z,56.55
2022-12-08T12:27:57.080Z,57.90
2022-12-08T12:30:30.093Z,58.49
2022-12-08T12:33:02.431Z,61.24
2022-12-08T12:35:37.357Z,61.22
2022-12-08T12:38:29.585Z,60.58
2022-12-08T12:41:02.731Z,60.83
2022-12-08T12:43:35.549Z,64.85
2022-12-08T12:46:25.987Z,66.62
2022-12-08T12:49:16.963Z,61.23
2022-12-08T12:51:48.820Z,56.43
2022-12-08T12:54:23.446Z,54.41
2022-12-08T12:56:55.715Z,54.64
2022-12-08T12:59:43.956Z,55.84
2022-12-08T13:02:23.702Z,58.57
2022-12-08T13:05:10.629Z,58.33
2022-12-08T13:07:46.584Z,59.64
2022-12-08T13:10:20.950Z,63.81
2022-12-08T13:13:05.601Z,61.28
2022-12-08T13:15:37.724Z,56.06
2022-12-08T13:18:09.340Z,55.70
2022-12-08T13:20:44.508Z,58.32
2022-12-08T13:23:43.303Z,59.82
2022-12-08T13:26:24.317Z,60.28
2022-12-08T13:29:15.335Z,60.83
2022-12-08T13:31:51.087Z,64.74
2022-12-08T13:34:24.566Z,65.40
2022-12-08T13:37:01.563Z,61.40
2022-12-08T13:39:36.450Z,55.68
2022-12-08T13:42:08.772Z,54.48
2022-12-08T13:45:21.354Z,55.53
2022-12-08T13:47:35.164Z,56.55
2022-12-08T13:56:59.522Z,59.20
2022-12-08T13:58:49.791Z,60.31
2022-12-08T14:01:22.290Z,64.23
2022-12-08T14:04:28.432Z,66.65
2022-12-08T14:06:46.004Z,63.88
2022-12-08T14:09:17.998Z,56.82
2022-12-08T14:11:52.230Z,54.08
2022-12-08T14:14:53.689Z,54.81
2022-12-08T14:17:17.658Z,55.96
2022-12-08T14:19:54.588Z,57.55
2022-12-08T14:22:25.986Z,58.90
2022-12-08T14:24:56.827Z,59.81
2022-12-08T14:27:30.160Z,61.26
2022-12-08T14:29:59.546Z,62.02
2022-12-08T14:32:31.633Z,66.91
2022-12-08T14:35:04.111Z,65.26
2022-12-08T14:37:36.670Z,60.87
2022-12-08T14:40:09.184Z,57.37
2022-12-08T14:42:45.522Z,55.49
2022-12-08T14:45:17.994Z,56.23
2022-12-08T14:47:48.886Z,57.45
2022-12-08T14:50:36.972Z,58.97
2022-12-08T14:53:11.151Z,60.07
2022-12-08T14:55:42.236Z,63.49
2022-12-08T14:58:18.664Z,64.54
2022-12-08T15:00:52.045Z,60.49
2022-12-08T15:03:23.458Z,56.51
2022-12-08T15:05:56.756Z,55.55
2022-12-08T15:08:27.697Z,57.00
2022-12-08T15:11:26.147Z,58.39
2022-12-08T15:13:56.844Z,59.99
2022-12-08T15:16:32.264Z,62.73
2022-12-08T15:19:16.732Z,65.16
2022-12-08T15:21:48.701Z,62.44
2022-12-08T15:24:19.995Z,57.59
2022-12-08T15:26:52.380Z,55.38
2022-12-08T15:29:24.634Z,55.76
2022-12-08T15:31:57.167Z,57.92
2022-12-08T15:34:28.002Z,58.75
2022-12-08T15:36:58.986Z,59.62
2022-12-08T15:39:39.134Z,60.53
2022-12-08T15:42:13.358Z,64.64
2022-12-08T15:44:44.359Z,66.14
2022-12-08T15:47:18.977Z,60.37
2022-12-08T15:49:50.736Z,56.14
2022-12-08T15:52:22.515Z,56.38
2022-12-08T15:54:53.345Z,57.79
2022-12-08T15:57:53.523Z,59.00
2022-12-08T16:09:13.155Z,61.87
2022-12-08T16:12:07.110Z,56.91
2022-12-08T16:17:32.005Z,58.67
2022-12-08T16:20:03.885Z,60.68
2022-12-08T16:25:28.830Z,61.51
2022-12-08T16:28:23.277Z,65.81
2022-12-08T16:30:57.918Z,67.27
2022-12-08T16:33:28.726Z,63.66
2022-12-08T16:35:59.783Z,59.03
2022-12-08T16:38:31.215Z,55.41
2022-12-08T16:41:19.922Z,56.13
2022-12-08T16:43:53.307Z,56.65
2022-12-08T16:46:28.184Z,59.70
2022-12-08T16:48:59.351Z,60.77
2022-12-08T16:51:30.278Z,63.80
2022-12-08T16:54:00.936Z,66.16
2022-12-08T16:56:33.622Z,63.39
2022-12-08T16:59:04.530Z,59.79
2022-12-08T17:01:36.337Z,57.32
2022-12-08T17:04:30.371Z,57.69
2022-12-08T17:06:58.330Z,58.35
2022-12-08T17:09:31.210Z,60.10
2022-12-08T17:12:03.995Z,63.27
2022-12-08T17:14:36.408Z,66.20
2022-12-08T17:17:07.472Z,62.68
2022-12-08T17:19:38.562Z,58.35
2022-12-08T17:22:09.493Z,55.97
2022-12-08T17:24:40.267Z,57.71
2022-12-08T17:27:11.761Z,58.90
2022-12-08T17:29:42.820Z,60.93
2022-12-08T17:32:13.728Z,64.43
2022-12-08T17:34:44.585Z,64.90
2022-12-08T17:37:15.566Z,62.04
2022-12-08T17:39:46.153Z,58.62
2022-12-08T17:42:17.345Z,56.15
2022-12-08T17:58:18.522Z,66.64
2022-12-08T18:00:49.461Z,65.37
2022-12-08T18:03:20.645Z,61.94
2022-12-08T18:05:54.274Z,57.40
2022-12-08T18:08:23.716Z,55.07
2022-12-08T18:10:54.857Z,55.83
2022-12-08T18:13:25.899Z,57.52
2022-12-08T18:15:56.680Z,58.93
2022-12-08T18:18:27.572Z,61.50
2022-12-08T18:20:58.312Z,66.29
2022-12-08T18:23:29.191Z,66.42
2022-12-08T18:26:00.088Z,62.37
2022-12-08T18:28:30.917Z,59.70
2022-12-08T18:31:01.570Z,55.59
2022-12-08T18:33:32.553Z,56.43
2022-12-08T18:36:07.053Z,57.56
2022-12-08T18:44:56.502Z,64.00
2022-12-08T18:47:27.359Z,67.21
2022-12-08T18:49:58.448Z,64.03
2022-12-08T18:52:32.357Z,60.34
2022-12-08T18:55:07.234Z,56.86
2022-12-08T18:57:40.075Z,55.31
2022-12-08T19:00:13.122Z,56.50
2022-12-08T19:02:42.480Z,58.43
2022-12-08T19:05:14.964Z,57.64
2022-12-08T19:07:46.804Z,60.55
2022-12-08T19:10:17.791Z,63.82
2022-12-08T19:12:50.633Z,66.64
2022-12-08T19:15:21.725Z,64.27
2022-12-08T19:17:52.550Z,60.27
2022-12-08T19:20:23.323Z,56.19
2022-12-08T19:22:54.149Z,55.24
2022-12-08T19:25:25.457Z,56.04
2022-12-08T19:27:56.333Z,58.66
2022-12-08T19:30:28.910Z,60.55
2022-12-08T19:32:59.817Z,61.94
2022-12-08T19:35:30.703Z,65.37
2022-12-08T19:38:02.081Z,63.21
2022-12-08T19:40:50.541Z,60.59
2022-12-08T19:43:39.635Z,54.97
2022-12-08T19:46:10.790Z,55.56
2022-12-08T19:48:41.873Z,58.38
2022-12-08T19:51:12.941Z,59.84
2022-12-08T19:53:47.531Z,60.33
2022-12-08T19:56:18.700Z,64.19
2022-12-08T19:58:49.572Z,63.84
2022-12-08T20:01:20.884Z,60.36
2022-12-08T20:03:51.603Z,56.31
2022-12-08T20:06:23.745Z,56.72
2022-12-08T20:08:55.194Z,59.52
2022-12-08T20:11:26.173Z,62.13
2022-12-08T20:13:57.055Z,63.68
2022-12-08T20:16:27.901Z,62.50
2022-12-08T20:18:58.628Z,59.11
2022-12-08T20:21:30.008Z,56.66
2022-12-08T20:24:00.964Z,58.27
2022-12-08T20:26:32.101Z,60.82
2022-12-08T20:29:03.046Z,61.15
2022-12-08T20:31:34.398Z,62.45
2022-12-08T20:34:05.612Z,66.48
2022-12-08T20:36:36.861Z,63.87
2022-12-08T20:39:11.831Z,60.26
2022-12-08T20:41:42.863Z,54.68
2022-12-08T20:44:14.029Z,54.68
2022-12-08T20:46:49.457Z,56.13
2022-12-08T20:49:20.409Z,57.65
2022-12-08T20:51:51.214Z,58.85
2022-12-08T20:54:22.383Z,59.47
2022-12-08T20:56:53.652Z,60.43
2022-12-08T20:59:26.519Z,64.11
2022-12-08T21:01:57.622Z,66.42
2022-12-08T21:04:29.028Z,62.43
2022-12-08T21:07:00.687Z,57.26
2022-12-08T21:09:31.821Z,55.20
2022-12-08T21:12:03.206Z,55.95
2022-12-08T21:14:34.322Z,56.60
2022-12-08T21:17:05.763Z,58.90
2022-12-08T21:19:36.872Z,59.58
2022-12-08T21:22:08.229Z,60.80
2022-12-08T21:24:39.851Z,61.67
2022-12-08T21:27:11.055Z,67.20
2022-12-08T21:29:42.577Z,66.27
2022-12-08T21:32:13.640Z,62.23
2022-12-08T21:34:45.904Z,55.67
2022-12-08T21:37:17.758Z,54.20
2022-12-08T21:39:48.979Z,56.36
2022-12-08T21:42:37.739Z,57.57
2022-12-08T21:45:10.309Z,58.38
2022-12-08T21:47:42.366Z,59.55
2022-12-08T21:50:14.393Z,63.50
2022-12-08T21:52:46.068Z,65.53
2022-12-08T21:55:17.730Z,62.08
2022-12-08T21:57:48.846Z,56.80
2022-12-08T22:00:21.361Z,54.54
2022-12-08T22:02:52.688Z,56.01
2022-12-08T22:05:24.776Z,56.90
2022-12-08T22:07:55.565Z,58.03
2022-12-08T22:10:26.487Z,59.49
2022-12-08T22:12:57.521Z,60.55
2022-12-08T22:15:30.326Z,64.27
2022-12-08T22:18:01.287Z,66.14
2022-12-08T22:20:32.507Z,61.87
2022-12-08T22:23:03.239Z,56.38
2022-12-08T22:25:34.575Z,54.31
2022-12-08T22:28:05.537Z,55.33
